createdAt,value
2023-04-15T00:03:41.460Z,100763.28
2023-04-15T00:08:43.473Z,100760.59
2023-04-15T00:13:45.594Z,100747.94
2023-04-15T00:18:47.059Z,100743.50
2023-04-15T00:23:52.555Z,100738.38
2023-04-15T00:28:54.086Z,100735.28
2023-04-15T00:33:55.561Z,100739.91
2023-04-15T00:38:57.046Z,100742.47
2023-04-15T00:43:59.237Z,100742.69
2023-04-15T00:49:01.082Z,100749.44
2023-04-15T00:54:04.275Z,100742.75
2023-04-15T00:59:08.862Z,100743.50
2023-04-15T01:04:11.539Z,100743.13
2023-04-15T01:09:13.114Z,100742.06
2023-04-15T01:14:14.587Z,100737.97
2023-04-15T01:19:17.897Z,100745.19
2023-04-15T01:24:19.355Z,100745.25
2023-04-15T01:29:20.834Z,100745.84
2023-04-15T01:34:22.473Z,100745.06
2023-04-15T01:39:24.019Z,100738.09
2023-04-15T01:44:25.689Z,100734.69
2023-04-15T01:49:27.585Z,100736.63
2023-04-15T01:54:29.073Z,100732.81
2023-04-15T01:59:31.311Z,100738.81
2023-04-15T02:04:32.859Z,100734.19
2023-04-15T02:09:34.318Z,100733.28
2023-04-15T02:14:35.782Z,100741.84
2023-04-15T02:19:37.362Z,100731.34
2023-04-15T02:24:38.831Z,100735.22
2023-04-15T02:29:40.536Z,100742.16
2023-04-15T02:34:42.768Z,100743.16
2023-04-15T02:39:44.235Z,100744.63
2023-04-15T02:44:45.690Z,100738.81
2023-04-15T02:49:47.153Z,100752.53
2023-04-15T02:54:48.647Z,100755.13
2023-04-15T02:59:50.128Z,100750.47
2023-04-15T03:04:51.745Z,100741.06
2023-04-15T03:09:53.227Z,100744.72
2023-04-15T03:14:54.761Z,100744.50
2023-04-15T03:19:56.286Z,100742.84
2023-04-15T03:24:57.855Z,100736.16
2023-04-15T03:29:59.346Z,100740.78
2023-04-15T03:35:00.808Z,100731.13
2023-04-15T03:40:02.393Z,100734.03
2023-04-15T03:45:04.156Z,100731.59
2023-04-15T03:50:06.082Z,100731.72
2023-04-15T03:55:08.418Z,100736.84
2023-04-15T04:00:10.664Z,100748.09
2023-04-15T04:05:12.124Z,100738.44
2023-04-15T04:10:13.585Z,100747.13
2023-04-15T04:15:15.066Z,100742.88
2023-04-15T04:20:16.605Z,100750.03
2023-04-15T04:25:18.064Z,100751.88
2023-04-15T04:30:19.739Z,100749.38
2023-04-15T04:35:21.883Z,100756.53
2023-04-15T04:40:23.357Z,100762.72
2023-04-15T04:45:24.803Z,100763.34
2023-04-15T04:50:26.256Z,100761.91
2023-04-15T04:55:27.919Z,100767.53
2023-04-15T05:00:29.731Z,100767.31
2023-04-15T05:05:31.411Z,100760.03
2023-04-15T05:10:32.906Z,100772.22
2023-04-15T05:15:36.825Z,100761.63
2023-04-15T05:20:38.414Z,100759.56
2023-04-15T05:25:39.931Z,100774.03
2023-04-15T05:30:41.421Z,100777.19
2023-04-15T05:35:42.900Z,100775.56
2023-04-15T05:40:44.393Z,100783.94
2023-04-15T05:45:45.886Z,100791.22
2023-04-15T05:50:47.447Z,100808.66
2023-04-15T05:55:48.894Z,100804.66
2023-04-15T06:00:50.550Z,100806.16
2023-04-15T06:05:52.013Z,100816.66
2023-04-15T06:10:54.491Z,100812.56
2023-04-15T06:15:56.008Z,100823.19
2023-04-15T06:20:57.503Z,100829.25
2023-04-15T06:25:58.994Z,100832.66
2023-04-15T06:31:01.497Z,100851.44
2023-04-15T06:36:03.006Z,100839.91
2023-04-15T06:41:04.690Z,100842.28
2023-04-15T06:46:06.311Z,100842.69
2023-04-15T06:51:07.909Z,100847.97
2023-04-15T06:56:09.654Z,100836.00
2023-04-15T07:01:11.535Z,100841.78
2023-04-15T07:06:13.214Z,100842.50
2023-04-15T07:11:15.022Z,100845.38
2023-04-15T07:16:16.510Z,100851.50
2023-04-15T07:21:18.394Z,100856.47
2023-04-15T07:26:19.880Z,100860.38
2023-04-15T07:31:21.419Z,100863.91
2023-04-15T07:36:23.240Z,100869.22
2023-04-15T07:41:25.699Z,100874.88
2023-04-15T07:46:27.502Z,100876.03
2023-04-15T07:51:29.651Z,100873.81
2023-04-15T07:56:31.136Z,100878.28
2023-04-15T08:01:32.974Z,100880.44
2023-04-15T08:06:34.746Z,100877.59
2023-04-15T08:11:36.589Z,100880.56
2023-04-15T08:16:38.230Z,100876.09
2023-04-15T08:21:40.616Z,100884.13
2023-04-15T08:26:42.188Z,100885.78
2023-04-15T08:31:43.806Z,100887.47
2023-04-15T08:36:45.380Z,100890.22
2023-04-15T08:41:48.027Z,100906.22
2023-04-15T08:46:49.793Z,100898.81
2023-04-15T08:51:51.340Z,100899.88
2023-04-15T08:56:52.817Z,100901.03
2023-04-15T09:01:55.284Z,100909.41
2023-04-15T09:06:57.178Z,100921.03
2023-04-15T09:11:58.666Z,100931.13
2023-04-15T09:17:04.190Z,100930.22
2023-04-15T09:22:05.870Z,100938.28
2023-04-15T09:27:07.463Z,100941.84
2023-04-15T09:32:15.546Z,100936.25
2023-04-15T09:37:31.518Z,100947.28
2023-04-15T09:42:33.778Z,100943.81
2023-04-15T09:47:35.776Z,100950.59
2023-04-15T09:52:42.992Z,100948.44
2023-04-15T09:57:45.590Z,100940.81
2023-04-15T10:02:47.310Z,100956.56
2023-04-15T10:07:49.039Z,100958.06
2023-04-15T10:12:50.528Z,100960.69
2023-04-15T10:17:52.086Z,100963.03
2023-04-15T10:22:53.575Z,100974.38
2023-04-15T10:27:55.069Z,100970.53
2023-04-15T10:32:56.588Z,100963.25
2023-04-15T10:37:58.073Z,100972.13
2023-04-15T10:43:01.074Z,100968.00
2023-04-15T10:48:03.970Z,100979.97
2023-04-15T10:53:05.712Z,100980.78
2023-04-15T10:58:07.699Z,100984.81
2023-04-15T11:03:09.684Z,100992.03
2023-04-15T11:08:11.709Z,100989.81
2023-04-15T11:13:17.681Z,100988.34
2023-04-15T11:18:20.875Z,100997.66
2023-04-15T11:23:38.326Z,100996.91
2023-04-15T11:28:41.352Z,101005.72
2023-04-15T11:33:47.039Z,101002.56
2023-04-15T11:38:48.515Z,101009.44
2023-04-15T11:43:50.649Z,101006.84
2023-04-15T11:48:52.204Z,101004.88
2023-04-15T11:53:54.746Z,101015.78
2023-04-15T11:58:58.344Z,101021.34
2023-04-15T12:04:01.517Z,101025.19
2023-04-15T12:09:16.564Z,101034.44
2023-04-15T12:14:28.371Z,101042.94
2023-04-15T12:19:32.432Z,101037.69
2023-04-15T12:24:37.032Z,101044.69
2023-04-15T12:29:39.659Z,101047.03
2023-04-15T12:34:42.941Z,101051.25
2023-04-15T12:39:45.606Z,101050.91
2023-04-15T12:44:47.277Z,101059.97
2023-04-15T12:49:49.572Z,101062.38
2023-04-15T12:54:51.159Z,101058.47
2023-04-15T12:59:52.697Z,101070.03
2023-04-15T13:04:54.822Z,101073.94
2023-04-15T13:09:56.842Z,101079.25
2023-04-15T13:14:58.316Z,101076.47
2023-04-15T13:19:59.792Z,101087.28
2023-04-15T13:25:01.260Z,101085.78
2023-04-15T13:30:03.214Z,101089.59
2023-04-15T13:35:05.221Z,101098.28
2023-04-15T13:40:07.747Z,101100.56
2023-04-15T13:45:10.035Z,101111.06
2023-04-15T13:50:11.552Z,101104.66
2023-04-15T13:55:18.733Z,101108.16
2023-04-15T14:00:21.276Z,101120.81
2023-04-15T14:05:22.747Z,101125.81
2023-04-15T14:10:24.207Z,101126.06
2023-04-15T14:15:25.674Z,101128.75
2023-04-15T14:20:27.144Z,101139.41
2023-04-15T14:25:33.625Z,101127.91
2023-04-15T14:30:35.905Z,101135.13
2023-04-15T14:35:37.898Z,101140.69
2023-04-15T14:40:39.425Z,101157.31
2023-04-15T14:45:43.598Z,101155.53
2023-04-15T14:50:46.786Z,101166.00
2023-04-15T14:55:48.238Z,101171.75
2023-04-15T15:00:49.693Z,101166.53
2023-04-15T15:05:51.436Z,101169.41
2023-04-15T15:10:53.124Z,101176.03
2023-04-15T15:15:54.607Z,101187.00
2023-04-15T15:20:56.234Z,101184.66
2023-04-15T15:25:58.461Z,101193.78
2023-04-15T15:30:59.963Z,101196.78
2023-04-15T15:36:01.599Z,101203.88
2023-04-15T15:41:03.999Z,101203.13
2023-04-15T15:46:05.896Z,101209.13
2023-04-15T15:51:07.622Z,101210.47
2023-04-15T15:56:09.131Z,101220.28
2023-04-15T16:01:10.983Z,101228.38
2023-04-15T16:06:12.529Z,101240.47
2023-04-15T16:11:14.500Z,101236.69
2023-04-15T16:16:16.046Z,101244.22
2023-04-15T16:21:17.753Z,101249.41
2023-04-15T16:26:19.235Z,101248.06
2023-04-15T16:31:20.925Z,101248.81
2023-04-15T16:36:22.430Z,101253.94
2023-04-15T16:41:23.906Z,101251.41
2023-04-15T16:46:25.516Z,101255.34
2023-04-15T16:51:27.255Z,101257.63
2023-04-15T16:56:29.296Z,101252.78
2023-04-15T17:01:31.111Z,101266.25
2023-04-15T17:06:32.668Z,101280.28
2023-04-15T17:11:35.104Z,101283.31
2023-04-15T17:16:36.646Z,101291.72
2023-04-15T17:21:38.111Z,101302.69
2023-04-15T17:26:39.675Z,101296.72
2023-04-15T17:31:41.182Z,101295.78
2023-04-15T17:36:42.690Z,101298.28
2023-04-15T17:41:44.234Z,101308.25
2023-04-15T17:46:45.901Z,101317.94
2023-04-15T17:51:47.413Z,101316.69
2023-04-15T17:56:49.202Z,101324.03
2023-04-15T18:01:50.857Z,101332.75
2023-04-15T18:06:52.404Z,101343.28
2023-04-15T18:11:53.919Z,101343.59
2023-04-15T18:16:55.405Z,101364.00
2023-04-15T18:21:56.861Z,101363.50
2023-04-15T18:26:59.099Z,101377.91
2023-04-15T18:32:02.725Z,101377.56
2023-04-15T18:37:05.282Z,101400.00
2023-04-15T18:42:06.747Z,101408.97
2023-04-15T18:47:08.223Z,101412.50
2023-04-15T18:52:09.927Z,101431.13
2023-04-15T18:57:11.753Z,101427.88
2023-04-15T19:02:13.329Z,101430.38
2023-04-15T19:07:14.846Z,101444.25
2023-04-15T19:12:16.314Z,101438.66
2023-04-15T19:17:17.807Z,101460.78
2023-04-15T19:22:19.334Z,101460.16
2023-04-15T19:27:20.866Z,101458.56
2023-04-15T19:32:22.351Z,101475.44
2023-04-15T19:37:23.872Z,101486.03
2023-04-15T19:42:25.481Z,101488.44
2023-04-15T19:47:27.887Z,101488.69
2023-04-15T19:52:29.373Z,101493.38
2023-04-15T19:57:30.827Z,101511.34
2023-04-15T20:02:32.429Z,101505.59
2023-04-15T20:07:34.014Z,101511.63
2023-04-15T20:12:49.390Z,101523.19
2023-04-15T20:17:54.090Z,101523.19
2023-04-15T20:22:55.610Z,101522.69
2023-04-15T20:28:00.342Z,101532.00
2023-04-15T20:33:02.537Z,101536.31
2023-04-15T20:38:04.558Z,101528.56
2023-04-15T20:43:06.031Z,101530.78
2023-04-15T20:48:07.586Z,101538.91
2023-04-15T20:53:09.167Z,101538.03
2023-04-15T20:58:11.307Z,101544.69
2023-04-15T21:03:12.951Z,101545.91
2023-04-15T21:08:14.521Z,101550.59
2023-04-15T21:13:17.627Z,101540.56
2023-04-15T21:18:19.151Z,101544.38
2023-04-15T21:23:20.644Z,101550.16
2023-04-15T21:28:22.400Z,101549.78
2023-04-15T21:33:24.044Z,101566.97
2023-04-15T21:38:25.555Z,101560.19
2023-04-15T21:43:27.134Z,101563.56
2023-04-15T21:48:28.614Z,101565.78
2023-04-15T21:53:30.128Z,101574.03
2023-04-15T21:58:31.586Z,101575.88
2023-04-15T22:03:34.078Z,101589.66
2023-04-15T22:08:41.620Z,101595.13
2023-04-15T22:13:46.658Z,101589.91
2023-04-15T22:18:48.169Z,101593.69
2023-04-15T22:23:49.743Z,101586.44
2023-04-15T22:28:51.572Z,101585.81
2023-04-15T22:33:53.031Z,101592.56
2023-04-15T22:38:54.549Z,101597.06
2023-04-15T22:43:56.011Z,101615.16
2023-04-15T22:48:57.519Z,101616.00
2023-04-15T22:53:58.983Z,101632.69
2023-04-15T22:59:00.468Z,101625.13
2023-04-15T23:04:05.514Z,101615.13
2023-04-15T23:09:08.439Z,101625.63
2023-04-15T23:14:10.243Z,101632.00
2023-04-15T23:19:11.983Z,101643.78
2023-04-15T23:24:13.717Z,101649.03
2023-04-15T23:29:15.273Z,101652.88
2023-04-15T23:34:16.723Z,101643.19
2023-04-15T23:39:18.179Z,101647.56
2023-04-15T23:44:19.942Z,101635.97
2023-04-15T23:49:21.418Z,101644.47
2023-04-15T23:54:23.234Z,101645.69
2023-04-15T23:59:24.693Z,101646.28
